sensor_id;sensor_type;location;lat;lon;timestamp;P1;durP1;ratioP1;P2;durP2;ratioP2
43606;SDS011;29197;44.788;10.366;2022-07-29T00:00:17;3.60;;;3.10;;
43606;SDS011;29197;44.788;10.366;2022-07-29T00:03:07;3.50;;;3.10;;
43606;SDS011;29197;44.788;10.366;2022-07-29T00:05:57;3.55;;;2.92;;
43606;SDS011;29197;44.788;10.366;2022-07-29T00:08:46;4.32;;;2.75;;
43606;SDS011;29197;44.788;10.366;2022-07-29T00:11:36;3.33;;;2.60;;
43606;SDS011;29197;44.788;10.366;2022-07-29T00:14:25;3.13;;;2.70;;
43606;SDS011;29197;44.788;10.366;2022-07-29T00:17:16;3.30;;;2.72;;
43606;SDS011;29197;44.788;10.366;2022-07-29T00:20:06;3.47;;;2.08;;
43606;SDS011;29197;44.788;10.366;2022-07-29T00:22:57;2.42;;;2.05;;
43606;SDS011;29197;44.788;10.366;2022-07-29T00:25:46;4.40;;;2.65;;
43606;SDS011;29197;44.788;10.366;2022-07-29T00:28:36;2.70;;;2.00;;
43606;SDS011;29197;44.788;10.366;2022-07-29T00:31:25;3.83;;;2.75;;
43606;SDS011;29197;44.788;10.366;2022-07-29T00:34:14;2.75;;;2.28;;
43606;SDS011;29197;44.788;10.366;2022-07-29T00:37:17;3.45;;;2.10;;
43606;SDS011;29197;44.788;10.366;2022-07-29T00:40:09;2.97;;;2.40;;
43606;SDS011;29197;44.788;10.366;2022-07-29T00:42:59;2.45;;;2.00;;
43606;SDS011;29197;44.788;10.366;2022-07-29T00:45:49;3.40;;;2.40;;
43606;SDS011;29197;44.788;10.366;2022-07-29T00:48:38;3.65;;;2.63;;
43606;SDS011;29197;44.788;10.366;2022-07-29T00:51:27;4.10;;;2.83;;
43606;SDS011;29197;44.788;10.366;2022-07-29T00:54:19;4.15;;;3.03;;
43606;SDS011;29197;44.788;10.366;2022-07-29T00:57:11;2.47;;;2.00;;
43606;SDS011;29197;44.788;10.366;2022-07-29T01:00:01;4.93;;;2.03;;
43606;SDS011;29197;44.788;10.366;2022-07-29T01:02:50;3.78;;;2.63;;
43606;SDS011;29197;44.788;10.366;2022-07-29T01:05:40;3.35;;;2.30;;
43606;SDS011;29197;44.788;10.366;2022-07-29T01:08:37;7.60;;;3.20;;
43606;SDS011;29197;44.788;10.366;2022-07-29T01:11:26;3.67;;;2.90;;
43606;SDS011;29197;44.788;10.366;2022-07-29T01:14:17;4.15;;;3.70;;
43606;SDS011;29197;44.788;10.366;2022-07-29T01:17:11;3.15;;;2.75;;
43606;SDS011;29197;44.788;10.366;2022-07-29T01:20:07;5.82;;;3.15;;
43606;SDS011;29197;44.788;10.366;2022-07-29T01:23:13;6.28;;;3.17;;
43606;SDS011;29197;44.788;10.366;2022-07-29T01:26:40;3.50;;;2.80;;
43606;SDS011;29197;44.788;10.366;2022-07-29T01:29:36;5.40;;;3.38;;
43606;SDS011;29197;44.788;10.366;2022-07-29T01:32:33;3.13;;;2.65;;
43606;SDS011;29197;44.788;10.366;2022-07-29T01:35:25;5.75;;;3.42;;
43606;SDS011;29197;44.788;10.366;2022-07-29T01:38:20;2.83;;;2.53;;
43606;SDS011;29197;44.788;10.366;2022-07-29T01:41:12;3.72;;;2.90;;
43606;SDS011;29197;44.788;10.366;2022-07-29T01:44:09;3.83;;;2.70;;
43606;SDS011;29197;44.788;10.366;2022-07-29T01:47:04;3.45;;;2.50;;
43606;SDS011;29197;44.788;10.366;2022-07-29T01:49:58;3.05;;;2.75;;
43606;SDS011;29197;44.788;10.366;2022-07-29T01:52:56;2.78;;;2.28;;
43606;SDS011;29197;44.788;10.366;2022-07-29T01:55:48;3.80;;;2.20;;
43606;SDS011;29197;44.788;10.366;2022-07-29T01:58:40;3.72;;;2.80;;
43606;SDS011;29197;44.788;10.366;2022-07-29T02:01:31;2.80;;;2.58;;
43606;SDS011;29197;44.788;10.366;2022-07-29T02:04:23;3.42;;;2.70;;
43606;SDS011;29197;44.788;10.366;2022-07-29T02:07:17;3.40;;;2.47;;
43606;SDS011;29197;44.788;10.366;2022-07-29T02:10:08;2.50;;;2.30;;
43606;SDS011;29197;44.788;10.366;2022-07-29T02:12:58;3.15;;;2.40;;
43606;SDS011;29197;44.788;10.366;2022-07-29T02:15:50;6.93;;;2.58;;
43606;SDS011;29197;44.788;10.366;2022-07-29T02:18:41;5.88;;;3.22;;
43606;SDS011;29197;44.788;10.366;2022-07-29T02:21:37;4.68;;;3.03;;
43606;SDS011;29197;44.788;10.366;2022-07-29T02:24:29;4.22;;;2.78;;
43606;SDS011;29197;44.788;10.366;2022-07-29T02:27:19;4.07;;;2.70;;
43606;SDS011;29197;44.788;10.366;2022-07-29T02:30:09;4.07;;;2.85;;
43606;SDS011;29197;44.788;10.366;2022-07-29T02:33:00;3.97;;;2.70;;
43606;SDS011;29197;44.788;10.366;2022-07-29T02:35:51;4.45;;;2.58;;
43606;SDS011;29197;44.788;10.366;2022-07-29T02:38:43;2.30;;;2.10;;
43606;SDS011;29197;44.788;10.366;2022-07-29T02:41:41;3.83;;;2.50;;
43606;SDS011;29197;44.788;10.366;2022-07-29T02:44:33;2.60;;;2.40;;
43606;SDS011;29197;44.788;10.366;2022-07-29T02:47:24;4.18;;;2.05;;
43606;SDS011;29197;44.788;10.366;2022-07-29T02:50:28;2.30;;;2.10;;
43606;SDS011;29197;44.788;10.366;2022-07-29T02:53:22;3.45;;;2.25;;
43606;SDS011;29197;44.788;10.366;2022-07-29T02:56:14;3.42;;;2.20;;
43606;SDS011;29197;44.788;10.366;2022-07-29T02:59:11;2.72;;;2.17;;
43606;SDS011;29197;44.788;10.366;2022-07-29T03:02:02;2.83;;;2.17;;
43606;SDS011;29197;44.788;10.366;2022-07-29T03:04:52;5.53;;;3.15;;
43606;SDS011;29197;44.788;10.366;2022-07-29T03:07:45;2.63;;;2.30;;
43606;SDS011;29197;44.788;10.366;2022-07-29T03:10:36;3.72;;;2.03;;
43606;SDS011;29197;44.788;10.366;2022-07-29T03:13:29;2.33;;;2.13;;
43606;SDS011;29197;44.788;10.366;2022-07-29T03:16:18;7.30;;;2.30;;
43606;SDS011;29197;44.788;10.366;2022-07-29T03:19:09;2.58;;;2.30;;
43606;SDS011;29197;44.788;10.366;2022-07-29T03:21:58;7.03;;;2.55;;
43606;SDS011;29197;44.788;10.366;2022-07-29T03:24:48;4.10;;;2.30;;
43606;SDS011;29197;44.788;10.366;2022-07-29T03:27:38;4.18;;;2.55;;
43606;SDS011;29197;44.788;10.366;2022-07-29T03:30:28;3.55;;;2.70;;
43606;SDS011;29197;44.788;10.366;2022-07-29T03:33:18;2.90;;;2.45;;
43606;SDS011;29197;44.788;10.366;2022-07-29T03:36:07;4.68;;;2.78;;
43606;SDS011;29197;44.788;10.366;2022-07-29T03:38:57;4.68;;;2.40;;
43606;SDS011;29197;44.788;10.366;2022-07-29T03:41:47;2.80;;;2.03;;
43606;SDS011;29197;44.788;10.366;2022-07-29T03:44:38;2.65;;;2.30;;
43606;SDS011;29197;44.788;10.366;2022-07-29T03:47:31;3.75;;;3.45;;
43606;SDS011;29197;44.788;10.366;2022-07-29T03:50:36;4.25;;;2.40;;
43606;SDS011;29197;44.788;10.366;2022-07-29T03:53:25;3.15;;;2.53;;
43606;SDS011;29197;44.788;10.366;2022-07-29T03:56:15;2.85;;;2.58;;
43606;SDS011;29197;44.788;10.366;2022-07-29T03:59:05;3.75;;;3.28;;
43606;SDS011;29197;44.788;10.366;2022-07-29T04:01:55;3.90;;;3.10;;
43606;SDS011;29197;44.788;10.366;2022-07-29T04:04:47;3.40;;;3.10;;
43606;SDS011;29197;44.788;10.366;2022-07-29T04:07:37;4.78;;;3.20;;
43606;SDS011;29197;44.788;10.366;2022-07-29T04:10:26;3.63;;;2.80;;
43606;SDS011;29197;44.788;10.366;2022-07-29T04:13:19;4.22;;;3.28;;
43606;SDS011;29197;44.788;10.366;2022-07-29T04:16:09;4.45;;;3.22;;
43606;SDS011;29197;44.788;10.366;2022-07-29T04:18:58;5.35;;;4.00;;
43606;SDS011;29197;44.788;10.366;2022-07-29T04:21:48;5.20;;;3.58;;
43606;SDS011;29197;44.788;10.366;2022-07-29T04:24:39;6.53;;;3.50;;
43606;SDS011;29197;44.788;10.366;2022-07-29T04:27:30;5.20;;;4.15;;
43606;SDS011;29197;44.788;10.366;2022-07-29T04:30:19;6.28;;;4.38;;
43606;SDS011;29197;44.788;10.366;2022-07-29T04:33:08;7.03;;;3.72;;
43606;SDS011;29197;44.788;10.366;2022-07-29T04:35:59;6.28;;;4.28;;
43606;SDS011;29197;44.788;10.366;2022-07-29T04:38:50;6.57;;;4.07;;
43606;SDS011;29197;44.788;10.366;2022-07-29T04:41:39;5.57;;;4.10;;
43606;SDS011;29197;44.788;10.366;2022-07-29T04:44:28;4.60;;;3.95;;
43606;SDS011;29197;44.788;10.366;2022-07-29T04:47:22;10.18;;;5.25;;
43606;SDS011;29197;44.788;10.366;2022-07-29T04:50:12;5.57;;;4.18;;
43606;SDS011;29197;44.788;10.366;2022-07-29T04:53:01;8.30;;;4.72;;
43606;SDS011;29197;44.788;10.366;2022-07-29T04:55:52;5.88;;;4.88;;
43606;SDS011;29197;44.788;10.366;2022-07-29T04:58:41;6.20;;;4.82;;
43606;SDS011;29197;44.788;10.366;2022-07-29T05:01:30;7.63;;;5.05;;
43606;SDS011;29197;44.788;10.366;2022-07-29T05:04:20;5.75;;;4.43;;
43606;SDS011;29197;44.788;10.366;2022-07-29T05:07:09;9.15;;;5.97;;
43606;SDS011;29197;44.788;10.366;2022-07-29T05:09:58;7.78;;;5.85;;
43606;SDS011;29197;44.788;10.366;2022-07-29T05:12:50;6.63;;;4.97;;
43606;SDS011;29197;44.788;10.366;2022-07-29T05:15:40;7.60;;;5.60;;
43606;SDS011;29197;44.788;10.366;2022-07-29T05:18:29;5.65;;;4.47;;
43606;SDS011;29197;44.788;10.366;2022-07-29T05:21:19;5.97;;;4.93;;
43606;SDS011;29197;44.788;10.366;2022-07-29T05:24:08;6.55;;;5.07;;
43606;SDS011;29197;44.788;10.366;2022-07-29T05:26:56;15.65;;;7.13;;
43606;SDS011;29197;44.788;10.366;2022-07-29T05:29:47;15.02;;;7.28;;
43606;SDS011;29197;44.788;10.366;2022-07-29T05:32:35;14.07;;;6.70;;
43606;SDS011;29197;44.788;10.366;2022-07-29T05:35:25;8.35;;;5.35;;
43606;SDS011;29197;44.788;10.366;2022-07-29T05:38:14;9.80;;;5.38;;
43606;SDS011;29197;44.788;10.366;2022-07-29T05:41:03;6.25;;;5.00;;
43606;SDS011;29197;44.788;10.366;2022-07-29T05:43:53;5.82;;;4.50;;
43606;SDS011;29197;44.788;10.366;2022-07-29T05:46:44;8.45;;;4.57;;
43606;SDS011;29197;44.788;10.366;2022-07-29T05:49:35;5.97;;;3.92;;
43606;SDS011;29197;44.788;10.366;2022-07-29T05:52:24;6.65;;;4.03;;
43606;SDS011;29197;44.788;10.366;2022-07-29T05:55:13;7.80;;;4.00;;
43606;SDS011;29197;44.788;10.366;2022-07-29T05:58:02;4.93;;;3.17;;
43606;SDS011;29197;44.788;10.366;2022-07-29T06:00:51;5.85;;;4.10;;
43606;SDS011;29197;44.788;10.366;2022-07-29T06:03:44;7.78;;;3.83;;
43606;SDS011;29197;44.788;10.366;2022-07-29T06:06:33;5.53;;;3.25;;
43606;SDS011;29197;44.788;10.366;2022-07-29T06:09:23;4.63;;;3.50;;
43606;SDS011;29197;44.788;10.366;2022-07-29T06:12:12;4.97;;;3.80;;
43606;SDS011;29197;44.788;10.366;2022-07-29T06:15:01;6.03;;;4.28;;
43606;SDS011;29197;44.788;10.366;2022-07-29T06:17:51;4.97;;;3.20;;
43606;SDS011;29197;44.788;10.366;2022-07-29T06:20:48;5.95;;;3.45;;
43606;SDS011;29197;44.788;10.366;2022-07-29T06:23:38;3.80;;;2.97;;
43606;SDS011;29197;44.788;10.366;2022-07-29T06:26:27;6.40;;;4.32;;
43606;SDS011;29197;44.788;10.366;2022-07-29T06:29:22;7.85;;;5.20;;
43606;SDS011;29197;44.788;10.366;2022-07-29T06:32:11;9.85;;;3.28;;
43606;SDS011;29197;44.788;10.366;2022-07-29T06:35:01;7.95;;;5.75;;
43606;SDS011;29197;44.788;10.366;2022-07-29T06:38:12;4.32;;;3.38;;
43606;SDS011;29197;44.788;10.366;2022-07-29T06:41:17;6.72;;;4.38;;
43606;SDS011;29197;44.788;10.366;2022-07-29T06:44:06;6.63;;;4.22;;
43606;SDS011;29197;44.788;10.366;2022-07-29T06:46:55;4.38;;;3.17;;
43606;SDS011;29197;44.788;10.366;2022-07-29T06:49:44;8.90;;;5.75;;
43606;SDS011;29197;44.788;10.366;2022-07-29T06:52:33;9.35;;;6.28;;
43606;SDS011;29197;44.788;10.366;2022-07-29T06:55:25;7.25;;;6.32;;
43606;SDS011;29197;44.788;10.366;2022-07-29T06:58:14;7.95;;;4.40;;
43606;SDS011;29197;44.788;10.366;2022-07-29T07:01:05;8.20;;;5.95;;
43606;SDS011;29197;44.788;10.366;2022-07-29T07:03:55;13.48;;;9.65;;
43606;SDS011;29197;44.788;10.366;2022-07-29T07:06:44;11.13;;;7.20;;
43606;SDS011;29197;44.788;10.366;2022-07-29T07:09:33;12.57;;;7.50;;
43606;SDS011;29197;44.788;10.366;2022-07-29T07:12:28;9.65;;;8.13;;
43606;SDS011;29197;44.788;10.366;2022-07-29T07:15:17;8.35;;;5.22;;
43606;SDS011;29197;44.788;10.366;2022-07-29T07:18:24;7.70;;;6.15;;
43606;SDS011;29197;44.788;10.366;2022-07-29T07:21:14;8.13;;;4.75;;
43606;SDS011;29197;44.788;10.366;2022-07-29T07:24:05;7.53;;;5.32;;
43606;SDS011;29197;44.788;10.366;2022-07-29T07:26:55;7.25;;;4.35;;
43606;SDS011;29197;44.788;10.366;2022-07-29T07:29:46;7.65;;;4.90;;
43606;SDS011;29197;44.788;10.366;2022-07-29T07:32:36;10.20;;;7.43;;
43606;SDS011;29197;44.788;10.366;2022-07-29T07:35:25;5.55;;;4.68;;
43606;SDS011;29197;44.788;10.366;2022-07-29T07:38:15;7.72;;;4.68;;
43606;SDS011;29197;44.788;10.366;2022-07-29T07:41:04;8.32;;;4.75;;
43606;SDS011;29197;44.788;10.366;2022-07-29T07:43:54;12.27;;;7.60;;
43606;SDS011;29197;44.788;10.366;2022-07-29T07:46:45;6.63;;;4.55;;
43606;SDS011;29197;44.788;10.366;2022-07-29T07:49:34;7.10;;;4.68;;
43606;SDS011;29197;44.788;10.366;2022-07-29T07:52:23;7.13;;;5.60;;
43606;SDS011;29197;44.788;10.366;2022-07-29T07:55:13;7.18;;;4.70;;
43606;SDS011;29197;44.788;10.366;2022-07-29T07:58:02;7.15;;;4.35;;
43606;SDS011;29197;44.788;10.366;2022-07-29T08:00:51;7.22;;;4.97;;
43606;SDS011;29197;44.788;10.366;2022-07-29T08:03:42;9.43;;;7.45;;
43606;SDS011;29197;44.788;10.366;2022-07-29T08:06:32;9.85;;;5.03;;
43606;SDS011;29197;44.788;10.366;2022-07-29T08:09:21;6.60;;;5.05;;
43606;SDS011;29197;44.788;10.366;2022-07-29T08:12:16;6.40;;;4.50;;
43606;SDS011;29197;44.788;10.366;2022-07-29T08:15:05;5.97;;;4.50;;
43606;SDS011;29197;44.788;10.366;2022-07-29T08:17:55;7.70;;;4.25;;
43606;SDS011;29197;44.788;10.366;2022-07-29T08:20:46;5.50;;;3.92;;
43606;SDS011;29197;44.788;10.366;2022-07-29T08:23:35;7.38;;;5.38;;
43606;SDS011;29197;44.788;10.366;2022-07-29T08:26:38;5.75;;;4.75;;
43606;SDS011;29197;44.788;10.366;2022-07-29T08:29:28;7.65;;;5.05;;
43606;SDS011;29197;44.788;10.366;2022-07-29T08:32:17;9.65;;;6.95;;
43606;SDS011;29197;44.788;10.366;2022-07-29T08:35:26;14.13;;;9.20;;
43606;SDS011;29197;44.788;10.366;2022-07-29T08:38:23;9.23;;;5.43;;
43606;SDS011;29197;44.788;10.366;2022-07-29T08:41:14;7.93;;;5.63;;
43606;SDS011;29197;44.788;10.366;2022-07-29T08:44:05;10.05;;;6.40;;
43606;SDS011;29197;44.788;10.366;2022-07-29T08:46:55;8.10;;;7.00;;
43606;SDS011;29197;44.788;10.366;2022-07-29T08:49:43;8.50;;;5.47;;
43606;SDS011;29197;44.788;10.366;2022-07-29T08:52:36;7.38;;;5.70;;
43606;SDS011;29197;44.788;10.366;2022-07-29T08:55:28;8.70;;;5.63;;
43606;SDS011;29197;44.788;10.366;2022-07-29T08:58:18;10.35;;;5.95;;
43606;SDS011;29197;44.788;10.366;2022-07-29T09:01:10;8.02;;;6.20;;
43606;SDS011;29197;44.788;10.366;2022-07-29T09:04:05;9.23;;;6.00;;
43606;SDS011;29197;44.788;10.366;2022-07-29T09:07:00;6.43;;;4.40;;
43606;SDS011;29197;44.788;10.366;2022-07-29T09:09:52;7.82;;;5.45;;
43606;SDS011;29197;44.788;10.366;2022-07-29T09:12:44;11.25;;;5.63;;
43606;SDS011;29197;44.788;10.366;2022-07-29T09:15:34;8.00;;;5.18;;
43606;SDS011;29197;44.788;10.366;2022-07-29T09:18:35;5.47;;;4.28;;
43606;SDS011;29197;44.788;10.366;2022-07-29T09:21:25;5.07;;;4.10;;
43606;SDS011;29197;44.788;10.366;2022-07-29T09:24:49;7.03;;;4.50;;
43606;SDS011;29197;44.788;10.366;2022-07-29T09:27:38;4.97;;;4.32;;
43606;SDS011;29197;44.788;10.366;2022-07-29T09:30:29;6.47;;;5.05;;
43606;SDS011;29197;44.788;10.366;2022-07-29T09:33:18;8.82;;;6.18;;
43606;SDS011;29197;44.788;10.366;2022-07-29T09:36:09;5.25;;;4.40;;
43606;SDS011;29197;44.788;10.366;2022-07-29T09:38:58;5.80;;;3.40;;
43606;SDS011;29197;44.788;10.366;2022-07-29T09:41:49;5.05;;;4.13;;
43606;SDS011;29197;44.788;10.366;2022-07-29T09:44:40;5.35;;;3.63;;
43606;SDS011;29197;44.788;10.366;2022-07-29T09:47:41;6.20;;;3.80;;
43606;SDS011;29197;44.788;10.366;2022-07-29T09:50:37;4.97;;;3.92;;
43606;SDS011;29197;44.788;10.366;2022-07-29T09:53:31;4.30;;;3.53;;
43606;SDS011;29197;44.788;10.366;2022-07-29T09:56:21;5.10;;;3.97;;
43606;SDS011;29197;44.788;10.366;2022-07-29T09:59:26;5.10;;;3.80;;
43606;SDS011;29197;44.788;10.366;2022-07-29T10:02:15;9.60;;;5.60;;
43606;SDS011;29197;44.788;10.366;2022-07-29T10:05:18;6.75;;;3.30;;
43606;SDS011;29197;44.788;10.366;2022-07-29T10:08:09;5.50;;;3.13;;
43606;SDS011;29197;44.788;10.366;2022-07-29T10:11:08;6.00;;;3.63;;
43606;SDS011;29197;44.788;10.366;2022-07-29T10:13:57;4.97;;;3.17;;
43606;SDS011;29197;44.788;10.366;2022-07-29T10:16:47;6.80;;;4.50;;
43606;SDS011;29197;44.788;10.366;2022-07-29T10:19:37;4.93;;;2.83;;
43606;SDS011;29197;44.788;10.366;2022-07-29T10:22:30;2.60;;;2.40;;
43606;SDS011;29197;44.788;10.366;2022-07-29T10:25:38;10.40;;;4.25;;
43606;SDS011;29197;44.788;10.366;2022-07-29T10:28:32;6.38;;;4.10;;
43606;SDS011;29197;44.788;10.366;2022-07-29T10:31:22;6.43;;;4.40;;
43606;SDS011;29197;44.788;10.366;2022-07-29T10:34:16;2.80;;;2.55;;
43606;SDS011;29197;44.788;10.366;2022-07-29T10:37:12;3.90;;;3.10;;
43606;SDS011;29197;44.788;10.366;2022-07-29T10:40:11;5.25;;;3.30;;
43606;SDS011;29197;44.788;10.366;2022-07-29T10:43:17;4.95;;;3.00;;
43606;SDS011;29197;44.788;10.366;2022-07-29T10:46:07;4.40;;;2.90;;
43606;SDS011;29197;44.788;10.366;2022-07-29T10:49:10;2.75;;;2.22;;
43606;SDS011;29197;44.788;10.366;2022-07-29T10:52:04;3.45;;;2.75;;
43606;SDS011;29197;44.788;10.366;2022-07-29T10:54:55;3.28;;;2.55;;
43606;SDS011;29197;44.788;10.366;2022-07-29T11:01:28;2.78;;;2.50;;
43606;SDS011;29197;44.788;10.366;2022-07-29T11:18:04;2.53;;;2.33;;
43606;SDS011;29197;44.788;10.366;2022-07-29T11:21:02;4.97;;;2.88;;
43606;SDS011;29197;44.788;10.366;2022-07-29T11:23:51;3.28;;;2.78;;
43606;SDS011;29197;44.788;10.366;2022-07-29T11:27:07;6.25;;;2.70;;
43606;SDS011;29197;44.788;10.366;2022-07-29T11:30:00;4.32;;;2.90;;
43606;SDS011;29197;44.788;10.366;2022-07-29T11:32:50;5.00;;;2.70;;
43606;SDS011;29197;44.788;10.366;2022-07-29T11:35:40;2.33;;;2.10;;
43606;SDS011;29197;44.788;10.366;2022-07-29T11:38:46;5.95;;;3.03;;
43606;SDS011;29197;44.788;10.366;2022-07-29T11:41:35;2.65;;;2.45;;
43606;SDS011;29197;44.788;10.366;2022-07-29T11:44:37;5.88;;;2.45;;
43606;SDS011;29197;44.788;10.366;2022-07-29T11:47:49;3.20;;;2.80;;
43606;SDS011;29197;44.788;10.366;2022-07-29T11:50:39;2.88;;;2.47;;
43606;SDS011;29197;44.788;10.366;2022-07-29T11:53:30;4.07;;;2.78;;
43606;SDS011;29197;44.788;10.366;2022-07-29T11:56:20;3.10;;;2.30;;
43606;SDS011;29197;44.788;10.366;2022-07-29T11:59:11;6.70;;;3.10;;
43606;SDS011;29197;44.788;10.366;2022-07-29T12:02:03;4.82;;;2.78;;
43606;SDS011;29197;44.788;10.366;2022-07-29T12:05:14;3.00;;;2.67;;
43606;SDS011;29197;44.788;10.366;2022-07-29T12:08:22;3.58;;;2.50;;
43606;SDS011;29197;44.788;10.366;2022-07-29T12:11:16;3.28;;;2.97;;
43606;SDS011;29197;44.788;10.366;2022-07-29T12:14:07;3.08;;;2.55;;
43606;SDS011;29197;44.788;10.366;2022-07-29T12:16:55;3.38;;;2.80;;
43606;SDS011;29197;44.788;10.366;2022-07-29T12:19:45;5.63;;;2.75;;
43606;SDS011;29197;44.788;10.366;2022-07-29T12:22:38;3.78;;;2.50;;
43606;SDS011;29197;44.788;10.366;2022-07-29T12:25:32;3.10;;;2.50;;
43606;SDS011;29197;44.788;10.366;2022-07-29T12:28:22;3.10;;;2.80;;
43606;SDS011;29197;44.788;10.366;2022-07-29T12:31:13;2.63;;;2.28;;
43606;SDS011;29197;44.788;10.366;2022-07-29T12:34:23;2.88;;;2.53;;
43606;SDS011;29197;44.788;10.366;2022-07-29T12:37:16;2.83;;;2.10;;
43606;SDS011;29197;44.788;10.366;2022-07-29T12:40:22;3.45;;;2.55;;
43606;SDS011;29197;44.788;10.366;2022-07-29T12:43:13;4.20;;;2.40;;
43606;SDS011;29197;44.788;10.366;2022-07-29T12:46:11;3.20;;;2.25;;
43606;SDS011;29197;44.788;10.366;2022-07-29T12:49:01;2.45;;;2.10;;
43606;SDS011;29197;44.788;10.366;2022-07-29T12:51:51;3.53;;;2.15;;
43606;SDS011;29197;44.788;10.366;2022-07-29T12:54:46;4.30;;;2.30;;
43606;SDS011;29197;44.788;10.366;2022-07-29T12:57:45;3.30;;;2.30;;
43606;SDS011;29197;44.788;10.366;2022-07-29T13:00:35;4.60;;;3.00;;
43606;SDS011;29197;44.788;10.366;2022-07-29T13:03:24;3.47;;;2.88;;
43606;SDS011;29197;44.788;10.366;2022-07-29T13:06:32;3.15;;;2.45;;
43606;SDS011;29197;44.788;10.366;2022-07-29T13:09:23;3.53;;;2.50;;
43606;SDS011;29197;44.788;10.366;2022-07-29T13:12:13;3.08;;;2.70;;
43606;SDS011;29197;44.788;10.366;2022-07-29T13:15:13;3.67;;;2.13;;
43606;SDS011;29197;44.788;10.366;2022-07-29T13:18:03;4.75;;;2.30;;
43606;SDS011;29197;44.788;10.366;2022-07-29T13:20:54;4.15;;;2.67;;
43606;SDS011;29197;44.788;10.366;2022-07-29T13:23:43;3.53;;;2.40;;
43606;SDS011;29197;44.788;10.366;2022-07-29T13:26:32;5.32;;;2.42;;
43606;SDS011;29197;44.788;10.366;2022-07-29T13:29:21;3.38;;;2.50;;
43606;SDS011;29197;44.788;10.366;2022-07-29T13:32:15;7.28;;;3.65;;
43606;SDS011;29197;44.788;10.366;2022-07-29T13:35:13;2.85;;;2.15;;
43606;SDS011;29197;44.788;10.366;2022-07-29T13:38:02;4.00;;;3.10;;
43606;SDS011;29197;44.788;10.366;2022-07-29T13:40:52;4.38;;;3.05;;
43606;SDS011;29197;44.788;10.366;2022-07-29T13:43:41;3.97;;;2.95;;
43606;SDS011;29197;44.788;10.366;2022-07-29T13:46:30;3.38;;;2.78;;
43606;SDS011;29197;44.788;10.366;2022-07-29T13:49:21;4.72;;;3.10;;
43606;SDS011;29197;44.788;10.366;2022-07-29T13:52:10;5.50;;;3.03;;
43606;SDS011;29197;44.788;10.366;2022-07-29T13:54:59;5.88;;;3.55;;
43606;SDS011;29197;44.788;10.366;2022-07-29T13:57:49;5.97;;;3.60;;
43606;SDS011;29197;44.788;10.366;2022-07-29T14:00:37;4.93;;;3.83;;
43606;SDS011;29197;44.788;10.366;2022-07-29T14:03:27;5.97;;;3.72;;
43606;SDS011;29197;44.788;10.366;2022-07-29T14:06:18;10.30;;;5.18;;
43606;SDS011;29197;44.788;10.366;2022-07-29T14:09:07;8.85;;;5.85;;
43606;SDS011;29197;44.788;10.366;2022-07-29T14:11:57;9.02;;;4.95;;
43606;SDS011;29197;44.788;10.366;2022-07-29T14:14:46;6.18;;;4.20;;
43606;SDS011;29197;44.788;10.366;2022-07-29T14:17:35;6.07;;;3.70;;
43606;SDS011;29197;44.788;10.366;2022-07-29T14:20:24;8.95;;;4.10;;
43606;SDS011;29197;44.788;10.366;2022-07-29T14:23:17;5.20;;;4.00;;
43606;SDS011;29197;44.788;10.366;2022-07-29T14:26:06;8.35;;;4.57;;
43606;SDS011;29197;44.788;10.366;2022-07-29T14:29:07;7.88;;;4.45;;
43606;SDS011;29197;44.788;10.366;2022-07-29T14:31:56;7.65;;;4.82;;
43606;SDS011;29197;44.788;10.366;2022-07-29T14:34:46;8.20;;;4.13;;
43606;SDS011;29197;44.788;10.366;2022-07-29T14:37:35;4.50;;;3.90;;
43606;SDS011;29197;44.788;10.366;2022-07-29T14:40:27;6.00;;;4.25;;
43606;SDS011;29197;44.788;10.366;2022-07-29T14:43:17;4.43;;;3.67;;
43606;SDS011;29197;44.788;10.366;2022-07-29T14:46:07;4.85;;;3.90;;
43606;SDS011;29197;44.788;10.366;2022-07-29T14:48:57;6.13;;;4.03;;
43606;SDS011;29197;44.788;10.366;2022-07-29T14:51:46;6.80;;;4.82;;
43606;SDS011;29197;44.788;10.366;2022-07-29T14:54:35;8.02;;;5.15;;
43606;SDS011;29197;44.788;10.366;2022-07-29T14:57:25;9.05;;;4.05;;
43606;SDS011;29197;44.788;10.366;2022-07-29T15:00:15;8.90;;;5.50;;
43606;SDS011;29197;44.788;10.366;2022-07-29T15:03:05;7.97;;;5.82;;
43606;SDS011;29197;44.788;10.366;2022-07-29T15:05:57;6.93;;;4.97;;
43606;SDS011;29197;44.788;10.366;2022-07-29T15:08:47;9.02;;;6.35;;
43606;SDS011;29197;44.788;10.366;2022-07-29T15:11:36;10.07;;;5.72;;
43606;SDS011;29197;44.788;10.366;2022-07-29T15:14:26;5.78;;;5.18;;
43606;SDS011;29197;44.788;10.366;2022-07-29T15:17:16;6.30;;;4.28;;
43606;SDS011;29197;44.788;10.366;2022-07-29T15:20:05;7.03;;;4.57;;
43606;SDS011;29197;44.788;10.366;2022-07-29T15:22:55;5.90;;;3.63;;
43606;SDS011;29197;44.788;10.366;2022-07-29T15:25:45;5.78;;;3.60;;
43606;SDS011;29197;44.788;10.366;2022-07-29T15:28:34;8.43;;;3.30;;
43606;SDS011;29197;44.788;10.366;2022-07-29T15:31:24;3.45;;;2.65;;
43606;SDS011;29197;44.788;10.366;2022-07-29T15:34:13;4.28;;;2.58;;
43606;SDS011;29197;44.788;10.366;2022-07-29T15:37:02;4.47;;;2.75;;
43606;SDS011;29197;44.788;10.366;2022-07-29T15:39:51;4.00;;;2.45;;
43606;SDS011;29197;44.788;10.366;2022-07-29T15:42:45;3.95;;;3.00;;
43606;SDS011;29197;44.788;10.366;2022-07-29T15:45:35;3.53;;;2.47;;
43606;SDS011;29197;44.788;10.366;2022-07-29T15:48:27;4.68;;;2.70;;
43606;SDS011;29197;44.788;10.366;2022-07-29T15:51:18;3.88;;;2.45;;
43606;SDS011;29197;44.788;10.366;2022-07-29T15:54:07;5.65;;;3.55;;
43606;SDS011;29197;44.788;10.366;2022-07-29T15:56:56;6.03;;;2.92;;
43606;SDS011;29197;44.788;10.366;2022-07-29T15:59:47;4.72;;;2.72;;
43606;SDS011;29197;44.788;10.366;2022-07-29T16:02:35;6.45;;;2.70;;
43606;SDS011;29197;44.788;10.366;2022-07-29T16:05:26;3.65;;;2.80;;
43606;SDS011;29197;44.788;10.366;2022-07-29T16:08:15;3.13;;;2.38;;
43606;SDS011;29197;44.788;10.366;2022-07-29T16:11:05;4.55;;;2.30;;
43606;SDS011;29197;44.788;10.366;2022-07-29T16:13:54;3.80;;;2.45;;
43606;SDS011;29197;44.788;10.366;2022-07-29T16:16:43;4.57;;;3.20;;
43606;SDS011;29197;44.788;10.366;2022-07-29T16:19:33;3.53;;;2.75;;
43606;SDS011;29197;44.788;10.366;2022-07-29T16:22:25;2.97;;;2.55;;
43606;SDS011;29197;44.788;10.366;2022-07-29T16:25:14;3.88;;;3.10;;
43606;SDS011;29197;44.788;10.366;2022-07-29T16:28:04;4.97;;;3.47;;
43606;SDS011;29197;44.788;10.366;2022-07-29T16:30:54;4.45;;;2.65;;
43606;SDS011;29197;44.788;10.366;2022-07-29T16:33:43;3.90;;;2.50;;
43606;SDS011;29197;44.788;10.366;2022-07-29T16:36:41;3.42;;;2.97;;
43606;SDS011;29197;44.788;10.366;2022-07-29T16:39:35;2.60;;;2.40;;
43606;SDS011;29197;44.788;10.366;2022-07-29T16:42:24;4.28;;;2.53;;
43606;SDS011;29197;44.788;10.366;2022-07-29T16:45:32;2.83;;;1.90;;
43606;SDS011;29197;44.788;10.366;2022-07-29T16:48:32;4.53;;;2.70;;
43606;SDS011;29197;44.788;10.366;2022-07-29T16:51:24;2.80;;;2.42;;
43606;SDS011;29197;44.788;10.366;2022-07-29T16:54:13;2.42;;;2.22;;
43606;SDS011;29197;44.788;10.366;2022-07-29T16:57:04;3.60;;;2.25;;
43606;SDS011;29197;44.788;10.366;2022-07-29T16:59:53;2.47;;;2.20;;
43606;SDS011;29197;44.788;10.366;2022-07-29T17:02:43;2.88;;;2.28;;
43606;SDS011;29197;44.788;10.366;2022-07-29T17:05:32;4.25;;;2.20;;
43606;SDS011;29197;44.788;10.366;2022-07-29T17:08:39;2.78;;;2.03;;
43606;SDS011;29197;44.788;10.366;2022-07-29T17:11:29;1.98;;;1.85;;
43606;SDS011;29197;44.788;10.366;2022-07-29T17:14:39;4.70;;;2.50;;
43606;SDS011;29197;44.788;10.366;2022-07-29T17:17:29;3.60;;;2.60;;